KDXR/DXR METAR and TAF weather

Enter ICAO airport designator
Station Type Date Time Source
KDXR METAR 2022/01/28 04:53 UTC NOAA

KDXR 280453Z AUTO 24006KT 10SM OVC055 M02/M12 A3020 RMK AO2 SLP230 T10171122 410111167


Station Type Date Time Source
KDXR Decoded METAR 2022/01/28 04:53 UTC NOAA

DANBURY MUNICIPAL AIRPORT, CT, United States (KDXR) 41-22N 073-29W 139M
Jan 27, 2022 - 11:53 PM EST / 2022.01.28 0453 UTC
Wind: from the WSW (240 degrees) at 7 MPH (6 KT):0
Visibility: 10 mile(s):0
Sky conditions: overcast
Temperature: 28.9 F (-1.7 C)
Windchill: 21 F (-6 C):1
Dew Point: 10.0 F (-12.2 C)
Relative Humidity: 44%
Pressure (altimeter): 30.2 in. Hg (1022 hPa)
ob: KDXR 280453Z AUTO 24006KT 10SM OVC055 M02/M12 A3020 RMK AO2 SLP230 T10171122 410111167
cycle: 5

Station Type Date Time Source
KDXR TAF UTC NOAA

Error!

Example: see airport list